Willard, Colorado
Current Conditions -  °F | °C
As of 4:55 PM on Monday 20 Oct 2014 (Local Time) from KSTK Reporting Station
Clear Clear  
Wind Chill: 26°   Ceiling: Unl
Heat Index: 26°   Visibility: 10mi
Dew Point:   Wind: 13mph
Humidity: 21%   Direction: 180°S
Pressure: 30.02"   Gusts: NA
Location:  40.5426°N, 103.449°W
Report Text: KSTK 202255Z AUTO 18011KT 10SM CLR 26/02 A3002 RMK AO2
Loading
Personal Weather Stations






























Interactive Weather Map
Tropical Storm Tracking
New forecast layout! Learn more

10-Day Weather Forecast

Advertisements
Track Severe Weather on mobile